Time;durP1;ratioP1;P1;durP2;ratioP2;P2;SDS_P1;SDS_P2;PMS_P1;PMS_P2;Temp;Humidity;BMP_temperature;BMP_pressure;BME280_temperature;BME280_humidity;BME280_pressure;Samples;Min_cycle;Max_cycle;Signal;HPM_P1;HPM_P2
2023/06/23 00:00:55;;;;;;;;;;;18.00;99.90;;;;;;5135241;27;20407;-43
2023/06/23 00:03:22;;;;;;;;;;;18.00;99.90;;;;;;5133388;27;20437;-43
2023/06/23 00:05:48;;;;;;;;;;;18.00;99.90;;;;;;5135022;27;20361;-43
2023/06/23 00:08:13;;;;;;;;;;;18.00;99.90;;;;;;5115732;27;19915;-43
2023/06/23 00:10:39;;;;;;;;;;;18.00;99.90;;;;;;5115098;28;19923;-44
2023/06/23 00:13:05;;;;;;;;;;;18.00;99.90;;;;;;5114399;28;20353;-43
2023/06/23 00:15:30;;;;;;;;;;;18.00;99.90;;;;;;5115133;28;19908;-43
2023/06/23 00:17:56;;;;;;;;;;;18.00;99.90;;;;;;5096882;28;19994;-44
2023/06/23 00:20:22;;;;;;;;;;;18.00;99.90;;;;;;5116155;27;19912;-42
2023/06/23 00:22:47;;;;;;;;;;;18.00;99.90;;;;;;5135542;27;19915;-43
2023/06/23 00:25:13;;;;;;;;;;;18.00;99.90;;;;;;5135483;27;19953;-43
2023/06/23 00:27:39;;;;;;;;;;;18.00;99.90;;;;;;5134652;27;20022;-44
2023/06/23 00:30:05;;;;;;;;;;;17.90;99.90;;;;;;5135584;27;19916;-43
2023/06/23 00:32:30;;;;;;;;;;;18.00;99.90;;;;;;5135482;27;19914;-42
2023/06/23 00:34:56;;;;;;;;;;;18.00;99.90;;;;;;5134611;27;20005;-42
2023/06/23 00:37:21;;;;;;;;;;;18.00;99.90;;;;;;5134948;27;19923;-42
2023/06/23 00:39:46;;;;;;;;;;;18.00;99.90;;;;;;5135299;27;20385;-43
2023/06/23 00:42:12;;;;;;;;;;;18.00;99.90;;;;;;5134204;27;19908;-43
2023/06/23 00:44:37;;;;;;;;;;;18.00;99.90;;;;;;5135193;27;19915;-43
2023/06/23 00:47:03;;;;;;;;;;;18.00;99.90;;;;;;5134276;27;19908;-43
2023/06/23 00:49:29;;;;;;;;;;;17.90;99.90;;;;;;5134164;27;19919;-43
2023/06/23 00:51:55;;;;;;;;;;;17.90;99.90;;;;;;5127316;27;20002;-43
2023/06/23 00:54:24;;;;;;;;;;;17.90;99.90;;;;;;5114579;28;19950;-43
2023/06/23 00:56:49;;;;;;;;;;;17.90;99.90;;;;;;5113789;28;20346;-42
2023/06/23 00:59:15;;;;;;;;;;;17.90;99.90;;;;;;5114273;28;19915;-42
2023/06/23 01:01:41;;;;;;;;;;;17.90;99.90;;;;;;5114395;28;19908;-42
2023/06/23 01:04:08;;;;;;;;;;;17.80;99.90;;;;;;5113442;28;20343;-44
2023/06/23 01:06:37;;;;;;;;;;;17.80;99.90;;;;;;5121779;27;20323;-43
2023/06/23 01:09:21;;;;;;;;;;;17.80;99.90;;;;;;5132372;27;20014;-43
2023/06/23 01:11:52;;;;;;;;;;;17.80;99.90;;;;;;5130134;27;19912;-43
2023/06/23 01:14:33;;;;;;;;;;;17.80;99.90;;;;;;5133896;27;19911;-43
2023/06/23 01:17:09;;;;;;;;;;;17.80;99.90;;;;;;5133076;27;20369;-43
2023/06/23 01:19:34;;;;;;;;;;;17.80;99.90;;;;;;5133998;27;20079;-44
2023/06/23 01:22:07;;;;;;;;;;;17.80;99.90;;;;;;5133698;27;20401;-42
2023/06/23 01:24:38;;;;;;;;;;;17.70;99.90;;;;;;5133201;27;19930;-42
2023/06/23 01:27:22;;;;;;;;;;;17.70;99.90;;;;;;5133791;27;19911;-43
2023/06/23 01:29:50;;;;;;;;;;;17.70;99.90;;;;;;5132751;27;19920;-43
2023/06/23 01:32:26;;;;;;;;;;;17.70;99.90;;;;;;5130397;27;20373;-44
2023/06/23 01:34:54;;;;;;;;;;;17.70;99.90;;;;;;5133671;27;19908;-43
2023/06/23 01:37:21;;;;;;;;;;;17.70;99.90;;;;;;5132409;27;19923;-43
2023/06/23 01:39:54;;;;;;;;;;;17.70;99.90;;;;;;5133532;27;20373;-43
2023/06/23 01:42:20;;;;;;;;;;;17.60;99.90;;;;;;5131339;27;20370;-45
2023/06/23 01:44:50;;;;;;;;;;;17.60;99.90;;;;;;5132854;27;19908;-43
2023/06/23 01:47:18;;;;;;;;;;;17.60;99.90;;;;;;5130802;27;19994;-43
2023/06/23 01:49:43;;;;;;;;;;;17.60;99.90;;;;;;5134088;27;20353;-43
2023/06/23 01:52:10;;;;;;;;;;;17.60;99.90;;;;;;5133034;27;19915;-43
2023/06/23 01:54:38;;;;;;;;;;;17.60;99.90;;;;;;5133888;27;20357;-43
2023/06/23 01:57:04;;;;;;;;;;;17.60;99.90;;;;;;5134082;27;19907;-42
2023/06/23 01:59:30;;;;;;;;;;;17.60;99.90;;;;;;5133036;27;20384;-42
2023/06/23 02:01:57;;;;;;;;;;;17.60;99.90;;;;;;5133898;27;19907;-43
2023/06/23 02:04:22;;;;;;;;;;;17.60;99.90;;;;;;5133860;27;19948;-43
2023/06/23 02:06:50;;;;;;;;;;;17.60;99.90;;;;;;5133002;27;19916;-42
2023/06/23 02:09:22;;;;;;;;;;;17.60;99.90;;;;;;5131123;27;19915;-44
2023/06/23 02:11:48;;;;;;;;;;;17.60;99.90;;;;;;5133887;28;19931;-43
2023/06/23 02:14:14;;;;;;;;;;;17.60;99.90;;;;;;5132826;28;19908;-43
2023/06/23 02:16:40;;;;;;;;;;;17.60;99.90;;;;;;5133716;28;19912;-42
2023/06/23 02:19:07;;;;;;;;;;;17.60;99.90;;;;;;5133645;28;19907;-44
2023/06/23 02:21:33;;;;;;;;;;;17.60;99.90;;;;;;5133761;27;19949;-42
2023/06/23 02:24:02;;;;;;;;;;;17.60;99.90;;;;;;5137766;27;20312;-42
2023/06/23 02:26:27;;;;;;;;;;;17.60;99.90;;;;;;5137054;27;19918;-42
2023/06/23 02:28:53;;;;;;;;;;;17.60;99.90;;;;;;5137921;27;19907;-42
2023/06/23 02:31:23;;;;;;;;;;;17.60;99.90;;;;;;5137718;27;19920;-44
2023/06/23 02:33:49;;;;;;;;;;;17.50;99.90;;;;;;5135207;27;19924;-42
2023/06/23 02:36:17;;;;;;;;;;;17.50;99.90;;;;;;5120422;27;19908;-43
2023/06/23 02:38:43;;;;;;;;;;;17.50;99.90;;;;;;5116839;28;19932;-43
2023/06/23 02:41:09;;;;;;;;;;;17.50;99.90;;;;;;5135871;27;19908;-43
2023/06/23 02:43:36;;;;;;;;;;;17.50;99.90;;;;;;5137634;27;19908;-43
2023/06/23 02:46:03;;;;;;;;;;;17.50;99.90;;;;;;5137534;27;19970;-43
2023/06/23 02:48:37;;;;;;;;;;;17.40;99.90;;;;;;5136645;27;20357;-43
2023/06/23 02:51:03;;;;;;;;;;;17.40;99.90;;;;;;5137322;27;19916;-42
2023/06/23 02:53:33;;;;;;;;;;;17.40;99.90;;;;;;5136882;27;19997;-42
2023/06/23 02:56:03;;;;;;;;;;;17.40;99.90;;;;;;5133927;27;19940;-42
2023/06/23 02:58:30;;;;;;;;;;;17.40;99.90;;;;;;5130369;27;19911;-42
2023/06/23 03:01:01;;;;;;;;;;;17.40;99.90;;;;;;5135014;27;19925;-43
2023/06/23 03:03:28;;;;;;;;;;;17.40;99.90;;;;;;5135030;27;19942;-42
2023/06/23 03:05:56;;;;;;;;;;;17.30;99.90;;;;;;5136338;27;19911;-43
2023/06/23 03:08:23;;;;;;;;;;;17.40;99.90;;;;;;5136142;27;19915;-43
2023/06/23 03:10:48;;;;;;;;;;;17.30;99.90;;;;;;5135319;27;19924;-43
2023/06/23 03:13:14;;;;;;;;;;;17.30;99.90;;;;;;5135949;27;19918;-43
2023/06/23 03:15:40;;;;;;;;;;;17.30;99.90;;;;;;5135675;27;19954;-43
2023/06/23 03:18:11;;;;;;;;;;;17.20;99.90;;;;;;5135250;27;19999;-43
2023/06/23 03:20:41;;;;;;;;;;;17.20;99.90;;;;;;5132661;27;19919;-42
2023/06/23 03:23:09;;;;;;;;;;;17.20;99.90;;;;;;5135243;27;19908;-42
2023/06/23 03:25:37;;;;;;;;;;;17.20;99.90;;;;;;5133589;27;19908;-43
2023/06/23 03:28:04;;;;;;;;;;;17.20;99.90;;;;;;5136163;27;19945;-44
2023/06/23 03:30:29;;;;;;;;;;;17.20;99.90;;;;;;5134858;27;19923;-43
2023/06/23 03:32:57;;;;;;;;;;;17.10;99.90;;;;;;5135860;27;19908;-44
2023/06/23 03:35:28;;;;;;;;;;;17.10;99.90;;;;;;5133226;27;19918;-44
2023/06/23 03:37:59;;;;;;;;;;;17.10;99.90;;;;;;5132259;27;19926;-43
2023/06/23 03:40:25;;;;;;;;;;;17.10;99.90;;;;;;5135497;27;19947;-43
2023/06/23 03:42:56;;;;;;;;;;;17.10;99.90;;;;;;5128542;27;19912;-42
2023/06/23 03:45:24;;;;;;;;;;;17.10;99.90;;;;;;5130476;27;21342;-43
2023/06/23 03:47:52;;;;;;;;;;;17.00;99.90;;;;;;5136296;27;19960;-43
2023/06/23 03:50:20;;;;;;;;;;;17.00;99.90;;;;;;5136068;27;19970;-43
2023/06/23 03:52:46;;;;;;;;;;;17.00;99.90;;;;;;5128957;27;19925;-43
2023/06/23 03:55:13;;;;;;;;;;;17.00;99.90;;;;;;5136091;27;19914;-43
2023/06/23 03:57:39;;;;;;;;;;;17.10;99.90;;;;;;5136161;27;19907;-43
2023/06/23 04:00:06;;;;;;;;;;;17.10;99.90;;;;;;5135269;27;20286;-44
2023/06/23 04:02:32;;;;;;;;;;;17.00;99.90;;;;;;5135968;27;19953;-42
2023/06/23 04:04:59;;;;;;;;;;;17.10;99.90;;;;;;5135320;27;19908;-43
2023/06/23 04:07:25;;;;;;;;;;;17.10;99.90;;;;;;5135822;27;19907;-43
2023/06/23 04:09:51;;;;;;;;;;;17.10;99.90;;;;;;5135868;27;19938;-43
2023/06/23 04:12:17;;;;;;;;;;;17.10;99.90;;;;;;5134943;27;20014;-43
2023/06/23 04:14:44;;;;;;;;;;;17.20;99.90;;;;;;5135709;27;19907;-43
2023/06/23 04:17:11;;;;;;;;;;;17.20;99.90;;;;;;5135770;27;19915;-43
2023/06/23 04:19:39;;;;;;;;;;;17.20;99.90;;;;;;5135005;27;19914;-42
2023/06/23 04:22:06;;;;;;;;;;;17.30;99.90;;;;;;5135474;27;19911;-44
2023/06/23 04:24:32;;;;;;;;;;;17.30;99.90;;;;;;5135247;27;19919;-42
2023/06/23 04:26:58;;;;;;;;;;;17.20;99.90;;;;;;5134322;27;19918;-43
2023/06/23 04:29:25;;;;;;;;;;;17.20;99.90;;;;;;5135298;27;19911;-42
2023/06/23 04:31:52;;;;;;;;;;;17.20;99.90;;;;;;5135151;27;19911;-43
2023/06/23 04:34:18;;;;;;;;;;;17.20;99.90;;;;;;5134593;27;20036;-43
2023/06/23 04:36:47;;;;;;;;;;;17.20;99.90;;;;;;5135471;27;20373;-44
2023/06/23 04:39:16;;;;;;;;;;;17.30;99.90;;;;;;5134955;27;19927;-43
2023/06/23 04:41:42;;;;;;;;;;;17.20;99.90;;;;;;5134681;27;19945;-43
2023/06/23 04:44:08;;;;;;;;;;;17.30;99.90;;;;;;5134497;27;19907;-43
2023/06/23 04:46:36;;;;;;;;;;;17.30;99.90;;;;;;5135179;27;19908;-43
2023/06/23 04:49:05;;;;;;;;;;;17.30;99.90;;;;;;5134386;27;20308;-43
2023/06/23 04:51:34;;;;;;;;;;;17.30;99.90;;;;;;5134962;27;19919;-46
2023/06/23 04:54:17;;;;;;;;;;;17.40;99.90;;;;;;5134996;27;19916;-43
2023/06/23 04:56:45;;;;;;;;;;;17.40;99.90;;;;;;5135102;27;19986;-45
2023/06/23 04:59:12;;;;;;;;;;;17.40;99.90;;;;;;5133587;27;19907;-44
2023/06/23 05:01:40;;;;;;;;;;;17.40;99.90;;;;;;5117898;27;19915;-44
2023/06/23 05:04:07;;;;;;;;;;;17.50;99.90;;;;;;5123307;27;19908;-44
2023/06/23 05:06:34;;;;;;;;;;;17.50;99.90;;;;;;5114106;28;19930;-43
2023/06/23 05:08:59;;;;;;;;;;;17.50;99.90;;;;;;5126499;27;20387;-42
2023/06/23 05:11:25;;;;;;;;;;;17.50;99.90;;;;;;5134180;27;19919;-42
2023/06/23 05:13:52;;;;;;;;;;;17.60;99.90;;;;;;5134682;27;20376;-42
2023/06/23 05:16:18;;;;;;;;;;;17.60;99.90;;;;;;5133754;27;20316;-43
2023/06/23 05:18:45;;;;;;;;;;;17.60;99.90;;;;;;5134539;27;19913;-43
2023/06/23 05:21:11;;;;;;;;;;;17.60;99.90;;;;;;5134282;27;19908;-42
2023/06/23 05:23:40;;;;;;;;;;;17.60;99.90;;;;;;5128868;27;20014;-43
2023/06/23 05:26:06;;;;;;;;;;;17.60;99.90;;;;;;5125099;27;19930;-44
2023/06/23 05:28:34;;;;;;;;;;;17.60;99.90;;;;;;5126835;27;19919;-43
2023/06/23 05:31:00;;;;;;;;;;;17.60;99.90;;;;;;5133376;27;19927;-44
2023/06/23 05:33:27;;;;;;;;;;;17.60;99.90;;;;;;5131110;27;19950;-42
2023/06/23 05:35:54;;;;;;;;;;;17.60;99.90;;;;;;5127291;27;19908;-43
2023/06/23 05:38:20;;;;;;;;;;;17.60;99.90;;;;;;5122551;27;20003;-43
2023/06/23 05:40:45;;;;;;;;;;;17.50;99.90;;;;;;5133738;27;19953;-42
2023/06/23 05:43:11;;;;;;;;;;;17.60;99.90;;;;;;5128164;27;19961;-43
2023/06/23 05:45:37;;;;;;;;;;;17.50;99.90;;;;;;5131322;27;19970;-43
2023/06/23 05:48:25;;;;;;;;;;;17.50;99.90;;;;;;5127586;27;19911;-45
2023/06/23 05:50:50;;;;;;;;;;;17.50;99.90;;;;;;5132534;27;19920;-42
2023/06/23 05:53:17;;;;;;;;;;;17.50;99.90;;;;;;5126812;27;20342;-44
2023/06/23 05:55:43;;;;;;;;;;;17.50;99.90;;;;;;5130552;27;19907;-42
2023/06/23 05:58:10;;;;;;;;;;;17.50;99.90;;;;;;5132214;27;19911;-43
2023/06/23 06:00:38;;;;;;;;;;;17.50;99.90;;;;;;5132771;27;20404;-43
2023/06/23 06:03:06;;;;;;;;;;;17.50;99.90;;;;;;5129637;27;20339;-43
2023/06/23 06:05:32;;;;;;;;;;;17.40;99.90;;;;;;5131826;27;19918;-43
2023/06/23 06:07:57;;;;;;;;;;;17.50;99.90;;;;;;5124989;27;19920;-43
2023/06/23 06:10:23;;;;;;;;;;;17.40;99.90;;;;;;5127817;27;20014;-43
2023/06/23 06:12:49;;;;;;;;;;;17.40;99.90;;;;;;5126559;28;19923;-43
2023/06/23 06:15:16;;;;;;;;;;;17.40;99.90;;;;;;5126940;28;20425;-42
2023/06/23 06:17:42;;;;;;;;;;;17.40;99.90;;;;;;5131708;28;19908;-43
2023/06/23 06:20:10;;;;;;;;;;;17.40;99.90;;;;;;5126300;28;20066;-43
2023/06/23 06:22:37;;;;;;;;;;;17.40;99.90;;;;;;5127415;28;20329;-43
2023/06/23 06:25:03;;;;;;;;;;;17.40;99.90;;;;;;5129353;28;20353;-42
2023/06/23 06:27:29;;;;;;;;;;;17.40;99.90;;;;;;5122457;28;20010;-43
2023/06/23 06:29:56;;;;;;;;;;;17.40;99.90;;;;;;5130028;28;19919;-42
2023/06/23 06:32:21;;;;;;;;;;;17.40;99.90;;;;;;5135387;27;19912;-43
2023/06/23 06:34:47;;;;;;;;;;;17.50;99.90;;;;;;5122977;28;20376;-42
2023/06/23 06:37:13;;;;;;;;;;;17.50;99.90;;;;;;5126981;28;19920;-43
2023/06/23 06:39:40;;;;;;;;;;;17.50;99.90;;;;;;5128572;28;19919;-43
2023/06/23 06:42:06;;;;;;;;;;;17.50;99.90;;;;;;5118991;28;19922;-43
2023/06/23 06:44:32;;;;;;;;;;;17.60;99.90;;;;;;5112834;28;19908;-42
2023/06/23 06:46:57;;;;;;;;;;;17.50;99.90;;;;;;5112227;28;19967;-41
2023/06/23 06:49:25;;;;;;;;;;;17.60;99.90;;;;;;5128939;28;19911;-43
2023/06/23 06:51:51;;;;;;;;;;;17.60;99.90;;;;;;5132409;28;19911;-42
2023/06/23 06:54:17;;;;;;;;;;;17.70;99.90;;;;;;5132516;28;19908;-43
2023/06/23 06:56:42;;;;;;;;;;;17.80;99.90;;;;;;5133289;28;19953;-45
2023/06/23 06:59:08;;;;;;;;;;;17.90;99.90;;;;;;5114200;28;19935;-43
2023/06/23 07:01:34;;;;;;;;;;;17.90;99.90;;;;;;5126927;28;19912;-42
2023/06/23 07:04:00;;;;;;;;;;;18.00;99.90;;;;;;5115469;28;19918;-42
2023/06/23 07:06:26;;;;;;;;;;;18.10;99.90;;;;;;5119042;28;20018;-43
2023/06/23 07:08:51;;;;;;;;;;;18.20;99.90;;;;;;5128624;27;19951;-44
2023/06/23 07:11:17;;;;;;;;;;;18.30;99.90;;;;;;5134464;27;19925;-43
2023/06/23 07:13:42;;;;;;;;;;;18.40;99.90;;;;;;5117607;27;20544;-42
2023/06/23 07:16:08;;;;;;;;;;;18.50;99.90;;;;;;5119301;27;19918;-45
2023/06/23 07:18:33;;;;;;;;;;;18.50;99.90;;;;;;5126696;27;20357;-44
2023/06/23 07:21:00;;;;;;;;;;;18.60;99.90;;;;;;5135822;27;19916;-44
2023/06/23 07:23:26;;;;;;;;;;;18.70;99.90;;;;;;5134390;27;19919;-43
2023/06/23 07:25:51;;;;;;;;;;;18.70;99.90;;;;;;5122413;27;19912;-43
2023/06/23 07:28:17;;;;;;;;;;;18.80;99.90;;;;;;5129528;27;19917;-42
2023/06/23 07:30:43;;;;;;;;;;;18.90;99.90;;;;;;5133581;27;19919;-44
2023/06/23 07:33:08;;;;;;;;;;;19.00;99.90;;;;;;5133422;27;20475;-45
2023/06/23 07:35:34;;;;;;;;;;;19.10;99.90;;;;;;5135112;27;19946;-42
2023/06/23 07:37:59;;;;;;;;;;;19.10;99.90;;;;;;5128208;27;20162;-44
2023/06/23 07:40:25;;;;;;;;;;;19.20;99.90;;;;;;5124441;27;19961;-43
2023/06/23 07:42:51;;;;;;;;;;;19.30;99.90;;;;;;5135177;27;19915;-45
2023/06/23 07:45:16;;;;;;;;;;;19.30;99.90;;;;;;5134927;27;19907;-43
2023/06/23 07:47:42;;;;;;;;;;;19.40;99.90;;;;;;5135110;27;19964;-43
2023/06/23 07:50:07;;;;;;;;;;;19.50;99.90;;;;;;5131743;27;20435;-47
2023/06/23 07:52:33;;;;;;;;;;;19.60;99.90;;;;;;5134791;27;20391;-43
2023/06/23 07:54:58;;;;;;;;;;;19.60;99.90;;;;;;5135052;27;20281;-43
2023/06/23 07:57:25;;;;;;;;;;;19.70;99.90;;;;;;5133949;27;20321;-44
2023/06/23 07:59:50;;;;;;;;;;;19.80;99.90;;;;;;5135083;27;19939;-43
2023/06/23 08:02:16;;;;;;;;;;;19.90;99.90;;;;;;5129994;27;20003;-43
2023/06/23 08:04:41;;;;;;;;;;;19.90;99.90;;;;;;5123607;27;19954;-44
2023/06/23 08:07:07;;;;;;;;;;;20.00;99.90;;;;;;5118479;27;19987;-45
2023/06/23 08:09:32;;;;;;;;;;;20.10;99.90;;;;;;5128329;27;19916;-42
2023/06/23 08:11:58;;;;;;;;;;;20.10;99.90;;;;;;5120367;27;19968;-44
2023/06/23 08:14:23;;;;;;;;;;;20.20;99.90;;;;;;5115190;28;20382;-42
2023/06/23 08:16:49;;;;;;;;;;;20.20;99.90;;;;;;5125797;27;19915;-45
2023/06/23 08:19:14;;;;;;;;;;;20.30;99.90;;;;;;5133681;27;19949;-44
2023/06/23 08:21:42;;;;;;;;;;;20.30;99.90;;;;;;5128630;27;19912;-43
2023/06/23 08:24:08;;;;;;;;;;;20.40;99.90;;;;;;5130485;27;19911;-44
2023/06/23 08:26:33;;;;;;;;;;;20.50;99.90;;;;;;5134956;27;19912;-44
2023/06/23 08:28:59;;;;;;;;;;;20.60;99.90;;;;;;5134753;27;20287;-44
2023/06/23 08:31:24;;;;;;;;;;;20.60;99.90;;;;;;5135142;27;19927;-43
2023/06/23 08:33:50;;;;;;;;;;;20.70;99.90;;;;;;5134896;27;19914;-43
2023/06/23 08:36:16;;;;;;;;;;;20.80;99.90;;;;;;5135139;27;19912;-42
2023/06/23 08:38:41;;;;;;;;;;;20.90;99.90;;;;;;5134456;27;19958;-43
2023/06/23 08:41:07;;;;;;;;;;;21.00;99.90;;;;;;5126748;27;19912;-43
2023/06/23 08:43:34;;;;;;;;;;;21.00;99.90;;;;;;5120375;27;19919;-43
2023/06/23 08:46:00;;;;;;;;;;;21.10;99.90;;;;;;5119618;27;19912;-45
2023/06/23 08:48:27;;;;;;;;;;;21.10;99.90;;;;;;5133447;27;20330;-44
2023/06/23 08:50:54;;;;;;;;;;;21.20;99.90;;;;;;5133689;27;20018;-46
2023/06/23 08:53:23;;;;;;;;;;;21.20;99.90;;;;;;5134092;27;19951;-44
2023/06/23 08:55:49;;;;;;;;;;;21.30;99.90;;;;;;5135135;27;19908;-44
2023/06/23 08:58:17;;;;;;;;;;;21.40;99.90;;;;;;5135057;27;20345;-43
2023/06/23 09:00:42;;;;;;;;;;;21.50;99.90;;;;;;5133605;27;20057;-43
2023/06/23 09:03:08;;;;;;;;;;;21.60;99.90;;;;;;5134902;27;20006;-45
2023/06/23 09:05:34;;;;;;;;;;;21.70;99.90;;;;;;5134820;27;19998;-43
2023/06/23 09:07:59;;;;;;;;;;;21.80;99.90;;;;;;5134101;27;19908;-46
2023/06/23 09:10:25;;;;;;;;;;;21.90;99.90;;;;;;5134637;27;19980;-44
2023/06/23 09:12:59;;;;;;;;;;;21.90;99.90;;;;;;5135104;27;20405;-43
2023/06/23 09:15:25;;;;;;;;;;;22.00;99.90;;;;;;5133630;27;19911;-44
2023/06/23 09:17:50;;;;;;;;;;;22.00;99.90;;;;;;5134822;27;19930;-44
2023/06/23 09:20:16;;;;;;;;;;;22.10;99.90;;;;;;5134564;27;20285;-43
2023/06/23 09:22:41;;;;;;;;;;;22.20;99.90;;;;;;5133566;27;19914;-43
2023/06/23 09:25:07;;;;;;;;;;;22.20;99.90;;;;;;5134545;27;20023;-44
2023/06/23 09:27:40;;;;;;;;;;;22.30;99.90;;;;;;5134439;27;19908;-44
2023/06/23 09:30:06;;;;;;;;;;;22.30;99.90;;;;;;5133215;27;20120;-44
2023/06/23 09:32:32;;;;;;;;;;;22.40;99.90;;;;;;5133407;27;20070;-44
2023/06/23 09:34:58;;;;;;;;;;;22.40;99.90;;;;;;5134315;27;20417;-47
2023/06/23 09:37:23;;;;;;;;;;;22.50;99.90;;;;;;5133074;27;19998;-43
2023/06/23 09:39:54;;;;;;;;;;;22.60;99.90;;;;;;5134292;27;20006;-43
2023/06/23 09:42:22;;;;;;;;;;;22.70;99.90;;;;;;5134189;27;19911;-43
2023/06/23 09:44:48;;;;;;;;;;;22.80;99.90;;;;;;5133013;27;20298;-44
2023/06/23 09:47:15;;;;;;;;;;;22.80;99.90;;;;;;5134093;27;19908;-43
2023/06/23 09:49:42;;;;;;;;;;;22.90;99.90;;;;;;5133076;27;20445;-43
2023/06/23 09:52:09;;;;;;;;;;;23.00;99.90;;;;;;5134014;27;20295;-44
2023/06/23 09:54:39;;;;;;;;;;;23.00;99.90;;;;;;5134014;27;19914;-43
2023/06/23 09:57:08;;;;;;;;;;;23.10;99.90;;;;;;5133205;27;20353;-43
2023/06/23 09:59:41;;;;;;;;;;;23.30;99.90;;;;;;5133613;27;19912;-44
2023/06/23 10:02:07;;;;;;;;;;;23.30;99.90;;;;;;5133941;27;19921;-43
2023/06/23 10:04:33;;;;;;;;;;;23.40;99.90;;;;;;5133137;27;19908;-44
2023/06/23 10:07:16;;;;;;;;;;;23.50;99.90;;;;;;5133525;27;20108;-44
2023/06/23 10:09:48;;;;;;;;;;;23.60;99.90;;;;;;5133887;27;19919;-44
2023/06/23 10:12:13;;;;;;;;;;;23.70;99.90;;;;;;5133125;27;20148;-44
2023/06/23 10:14:39;;;;;;;;;;;23.80;99.90;;;;;;5133168;28;20411;-43
2023/06/23 10:17:04;;;;;;;;;;;23.90;99.90;;;;;;5133744;28;19965;-43
2023/06/23 10:19:30;;;;;;;;;;;24.00;99.90;;;;;;5132931;28;19957;-43
2023/06/23 10:21:55;;;;;;;;;;;24.00;99.90;;;;;;5133782;28;19930;-43
2023/06/23 10:24:22;;;;;;;;;;;24.10;99.90;;;;;;5133663;28;19908;-45
2023/06/23 10:26:50;;;;;;;;;;;24.20;99.90;;;;;;5132930;28;19998;-46
2023/06/23 10:29:17;;;;;;;;;;;24.20;99.90;;;;;;5133230;28;20031;-44
2023/06/23 10:31:43;;;;;;;;;;;24.20;99.90;;;;;;5120404;28;19916;-43
2023/06/23 10:34:13;;;;;;;;;;;24.20;99.90;;;;;;5116141;28;19919;-44
2023/06/23 10:36:39;;;;;;;;;;;24.30;99.90;;;;;;5125679;28;19926;-45
2023/06/23 10:39:06;;;;;;;;;;;24.30;99.90;;;;;;5112728;28;20402;-44
2023/06/23 10:41:33;;;;;;;;;;;24.30;99.90;;;;;;5127889;27;20071;-45
2023/06/23 10:43:59;;;;;;;;;;;24.30;99.90;;;;;;5133304;27;20005;-45
2023/06/23 10:46:25;;;;;;;;;;;24.30;99.90;;;;;;5132329;27;19915;-42
2023/06/23 10:48:51;;;;;;;;;;;24.40;99.90;;;;;;5128041;27;19915;-44
2023/06/23 10:51:17;;;;;;;;;;;24.50;99.90;;;;;;5127084;27;19922;-44
2023/06/23 10:53:44;;;;;;;;;;;24.50;99.90;;;;;;5136665;27;19950;-44
2023/06/23 10:56:09;;;;;;;;;;;24.60;99.90;;;;;;5137347;27;20393;-43
2023/06/23 10:58:50;;;;;;;;;;;24.70;99.90;;;;;;5137301;27;19908;-45
2023/06/23 11:01:16;;;;;;;;;;;24.70;99.90;;;;;;5136134;27;19969;-44
2023/06/23 11:03:41;;;;;;;;;;;24.80;99.90;;;;;;5136587;27;20365;-44
2023/06/23 11:06:08;;;;;;;;;;;24.90;99.90;;;;;;5137219;27;19994;-44
2023/06/23 11:08:40;;;;;;;;;;;24.90;99.90;;;;;;5128075;27;20376;-49
2023/06/23 11:11:07;;;;;;;;;;;24.90;99.90;;;;;;5125944;27;19919;-46
2023/06/23 11:13:45;;;;;;;;;;;25.00;99.90;;;;;;5129178;27;19915;-45
2023/06/23 11:16:12;;;;;;;;;;;25.10;99.90;;;;;;5119813;27;20002;-46
2023/06/23 11:18:46;;;;;;;;;;;25.20;99.90;;;;;;5126156;27;19919;-45
2023/06/23 11:21:37;;;;;;;;;;;25.30;99.90;;;;;;5120167;27;19954;-45
2023/06/23 11:24:09;;;;;;;;;;;25.50;99.90;;;;;;5123203;27;20006;-44
2023/06/23 11:26:34;;;;;;;;;;;25.50;99.90;;;;;;5131391;27;19911;-43
2023/06/23 11:29:00;;;;;;;;;;;25.40;99.90;;;;;;5133560;27;19964;-44
2023/06/23 11:31:27;;;;;;;;;;;25.40;99.90;;;;;;5133282;27;19922;-44
2023/06/23 11:34:02;;;;;;;;;;;25.40;99.90;;;;;;5136541;27;19911;-44
2023/06/23 11:36:29;;;;;;;;;;;25.40;99.90;;;;;;5115044;28;19965;-45
2023/06/23 11:38:58;;;;;;;;;;;25.20;99.90;;;;;;5134828;27;20002;-44
2023/06/23 11:41:24;;;;;;;;;;;25.30;99.90;;;;;;5131375;27;19912;-44
2023/06/23 11:43:50;;;;;;;;;;;25.40;99.90;;;;;;5130341;27;19915;-45
2023/06/23 11:46:16;;;;;;;;;;;25.50;99.90;;;;;;5135648;27;20345;-46
2023/06/23 11:48:42;;;;;;;;;;;25.60;99.90;;;;;;5135129;27;19907;-43
2023/06/23 11:51:08;;;;;;;;;;;25.50;99.90;;;;;;5134352;27;19963;-46
2023/06/23 11:53:34;;;;;;;;;;;25.40;99.90;;;;;;5134499;27;19960;-42
2023/06/23 11:56:00;;;;;;;;;;;25.60;99.90;;;;;;5134461;27;19915;-45
2023/06/23 11:58:29;;;;;;;;;;;25.60;99.90;;;;;;5134508;27;19965;-46
2023/06/23 12:00:55;;;;;;;;;;;25.70;99.90;;;;;;5135208;27;19915;-44
2023/06/23 12:03:20;;;;;;;;;;;25.70;99.90;;;;;;5134655;27;20270;-44
2023/06/23 12:05:46;;;;;;;;;;;25.80;99.90;;;;;;5135433;27;19907;-43
2023/06/23 12:08:12;;;;;;;;;;;25.80;99.90;;;;;;5135159;27;19912;-44
2023/06/23 12:10:41;;;;;;;;;;;25.80;99.90;;;;;;5134045;27;19927;-46
2023/06/23 12:13:10;;;;;;;;;;;25.70;99.90;;;;;;5135088;27;19926;-45
2023/06/23 12:15:39;;;;;;;;;;;25.70;99.90;;;;;;5134583;27;20052;-44
2023/06/23 12:18:05;;;;;;;;;;;25.80;99.90;;;;;;5134066;27;19907;-44
2023/06/23 12:20:34;;;;;;;;;;;25.80;99.90;;;;;;5119439;27;19923;-46
2023/06/23 12:23:06;;;;;;;;;;;25.80;99.90;;;;;;5123205;27;20113;-45
2023/06/23 12:25:33;;;;;;;;;;;25.90;99.90;;;;;;5133154;27;19923;-45
2023/06/23 12:27:59;;;;;;;;;;;25.90;99.80;;;;;;5134694;27;19908;-46
2023/06/23 12:30:24;;;;;;;;;;;26.00;94.90;;;;;;5134208;27;19919;-45
2023/06/23 12:32:54;;;;;;;;;;;25.90;99.90;;;;;;5133795;27;19908;-45
2023/06/23 12:35:21;;;;;;;;;;;26.10;99.70;;;;;;5128965;27;20017;-44
2023/06/23 12:37:47;;;;;;;;;;;26.20;99.30;;;;;;5116805;27;20036;-43
2023/06/23 12:40:32;;;;;;;;;;;26.30;99.60;;;;;;5118033;27;19916;-43
2023/06/23 12:42:58;;;;;;;;;;;26.30;99.90;;;;;;5119385;27;19919;-44
2023/06/23 12:45:24;;;;;;;;;;;26.50;99.90;;;;;;5118904;27;19911;-44
2023/06/23 12:47:53;;;;;;;;;;;26.60;99.90;;;;;;5118341;27;19911;-46
2023/06/23 12:50:31;;;;;;;;;;;26.70;99.20;;;;;;5114521;28;20002;-45
2023/06/23 12:53:00;;;;;;;;;;;26.90;97.70;;;;;;5129309;27;19964;-43
2023/06/23 12:55:25;;;;;;;;;;;26.90;98.20;;;;;;5129294;27;20274;-44
2023/06/23 12:57:51;;;;;;;;;;;27.00;95.20;;;;;;5114622;28;19912;-44
2023/06/23 13:00:20;;;;;;;;;;;27.30;94.60;;;;;;5121840;27;19957;-44
2023/06/23 13:02:46;;;;;;;;;;;27.50;95.00;;;;;;5114400;28;19912;-44
2023/06/23 13:05:11;;;;;;;;;;;27.70;95.10;;;;;;5115956;27;19908;-45
2023/06/23 13:07:37;;;;;;;;;;;27.90;92.90;;;;;;5127304;27;19918;-43
2023/06/23 13:10:03;;;;;;;;;;;28.10;92.10;;;;;;5120953;27;19945;-45
2023/06/23 13:12:28;;;;;;;;;;;28.10;90.10;;;;;;5119201;27;19994;-45
2023/06/23 13:14:53;;;;;;;;;;;28.00;91.10;;;;;;5113455;27;20281;-44
2023/06/23 13:17:19;;;;;;;;;;;28.10;90.90;;;;;;5116274;27;19915;-43
2023/06/23 13:19:45;;;;;;;;;;;28.40;87.40;;;;;;5127170;27;20385;-45
2023/06/23 13:22:10;;;;;;;;;;;28.70;86.40;;;;;;5112903;27;19918;-43
2023/06/23 13:24:37;;;;;;;;;;;29.10;81.30;;;;;;5119362;27;19936;-46
2023/06/23 13:27:07;;;;;;;;;;;29.20;87.60;;;;;;5134113;27;19911;-45
2023/06/23 13:29:33;;;;;;;;;;;29.10;88.70;;;;;;5133439;27;19918;-44
2023/06/23 13:31:59;;;;;;;;;;;28.90;85.80;;;;;;5123550;27;19916;-43
2023/06/23 13:34:24;;;;;;;;;;;28.60;84.90;;;;;;5113511;27;19912;-43
2023/06/23 13:36:50;;;;;;;;;;;28.40;91.70;;;;;;5126705;27;19912;-43
2023/06/23 13:39:15;;;;;;;;;;;28.10;91.40;;;;;;5133764;27;20012;-44
2023/06/23 13:41:41;;;;;;;;;;;28.20;91.00;;;;;;5131108;27;20381;-44
2023/06/23 13:44:07;;;;;;;;;;;28.50;87.80;;;;;;5121286;27;19960;-43
2023/06/23 13:46:32;;;;;;;;;;;28.80;90.80;;;;;;5114187;27;19912;-43
2023/06/23 13:48:58;;;;;;;;;;;29.10;89.70;;;;;;5112749;27;19922;-46
2023/06/23 13:51:23;;;;;;;;;;;29.30;83.10;;;;;;5113872;27;19920;-45
2023/06/23 13:53:49;;;;;;;;;;;29.50;82.10;;;;;;5116759;27;19981;-45
2023/06/23 13:56:14;;;;;;;;;;;29.80;75.70;;;;;;5112572;27;19912;-43
2023/06/23 13:58:40;;;;;;;;;;;30.00;74.40;;;;;;5113487;28;19973;-47
2023/06/23 14:01:05;;;;;;;;;;;30.30;75.20;;;;;;5130278;27;20014;-42
2023/06/23 14:03:31;;;;;;;;;;;30.40;80.90;;;;;;5128527;27;19970;-44
2023/06/23 14:05:56;;;;;;;;;;;30.30;67.40;;;;;;5131898;27;19919;-45
2023/06/23 14:08:22;;;;;;;;;;;30.20;85.80;;;;;;5126020;27;19955;-44
2023/06/23 14:10:47;;;;;;;;;;;30.20;78.00;;;;;;5123896;27;19979;-45
2023/06/23 14:13:14;;;;;;;;;;;30.20;74.00;;;;;;5121755;27;19977;-44
2023/06/23 14:15:39;;;;;;;;;;;30.40;68.70;;;;;;5127086;28;20165;-44